Buena, Washington
Current Conditions -  °F | °C
As of 2:53 PM on Wednesday 26 Nov 2014 (Local Time) from KYKM Reporting Station
Few Clouds Few Clouds  
Wind Chill: 46°   Ceiling: Unl
Heat Index: 46°   Visibility: 10mi
Dew Point: 40°   Wind: 0mph
Humidity: 79%   Direction: NA
Pressure: 30.08"   Gusts: NA
Location:  46.43°N, 120.32°W
Report Text: KYKM 262253Z 00000KT 10SM FEW065 08/04 A3008 RMK AO2 SLP192 T00780044
Loading
Personal Weather Stations






























Interactive Weather Map New forecast layout! Learn more

10-Day Weather Forecast

Advertisements
Track Severe Weather on mobile